Time;durP1;ratioP1;P1;durP2;ratioP2;P2;SDS_P1;SDS_P2;PMS_P1;PMS_P2;Temp;Humidity;BMP_temperature;BMP_pressure;BME280_temperature;BME280_humidity;BME280_pressure;Samples;Min_cycle;Max_cycle;Signal;HPM_P1;HPM_P2
2020/12/11 00:02:03;;;;;;;13.82;12.32;;;;;;;;;;5072743;28;20077;-67
2020/12/11 00:04:28;;;;;;;13.10;11.70;;;;;;;;;;5072706;28;20107;-69
2020/12/11 00:06:57;;;;;;;17.20;12.73;;;;;;;;;;5072373;28;20484;-69
2020/12/11 00:09:23;;;;;;;13.73;12.30;;;;;;;;;;5072854;28;20032;-68
2020/12/11 00:11:48;;;;;;;14.27;12.77;;;;;;;;;;5072453;28;20534;-70
2020/12/11 00:14:13;;;;;;;14.25;12.75;;;;;;;;;;5072845;28;20112;-69
2020/12/11 00:16:38;;;;;;;14.23;12.20;;;;;;;;;;5072350;28;20024;-69
2020/12/11 00:19:03;;;;;;;13.80;11.93;;;;;;;;;;5072654;28;20254;-68
2020/12/11 00:21:36;;;;;;;14.10;12.63;;;;;;;;;;5072486;28;20396;-67
2020/12/11 00:24:01;;;;;;;14.93;12.88;;;;;;;;;;5073951;28;20013;-67
2020/12/11 00:26:27;;;;;;;13.75;12.32;;;;;;;;;;5073690;28;20104;-67
2020/12/11 00:28:52;;;;;;;14.50;11.95;;;;;;;;;;5074216;28;20027;-67
2020/12/11 00:31:22;;;;;;;13.82;12.43;;;;;;;;;;5076105;28;20020;-67
2020/12/11 00:33:47;;;;;;;14.10;12.32;;;;;;;;;;5080614;28;20036;-66
2020/12/11 00:36:12;;;;;;;16.35;11.82;;;;;;;;;;5078887;28;20024;-66
2020/12/11 00:38:37;;;;;;;13.73;12.32;;;;;;;;;;5075754;28;20012;-66
2020/12/11 00:41:03;;;;;;;13.50;11.80;;;;;;;;;;5076408;28;20017;-65
2020/12/11 00:43:28;;;;;;;13.68;11.25;;;;;;;;;;5080655;28;20119;-69
2020/12/11 00:45:53;;;;;;;12.33;11.07;;;;;;;;;;5079852;28;20067;-68
2020/12/11 00:48:18;;;;;;;13.20;11.90;;;;;;;;;;5077024;28;20251;-67
2020/12/11 00:50:43;;;;;;;16.00;11.93;;;;;;;;;;5077641;28;20024;-66
2020/12/11 00:53:08;;;;;;;14.77;11.80;;;;;;;;;;5075409;28;20251;-66
2020/12/11 00:55:34;;;;;;;13.50;11.93;;;;;;;;;;5073413;28;20283;-67
2020/12/11 00:57:59;;;;;;;12.40;11.10;;;;;;;;;;5073523;28;20263;-66
2020/12/11 01:00:27;;;;;;;14.87;11.40;;;;;;;;;;5076282;28;20334;-68
2020/12/11 01:02:52;;;;;;;12.98;11.57;;;;;;;;;;5076202;28;20255;-68
2020/12/11 01:05:18;;;;;;;12.43;11.10;;;;;;;;;;5076100;28;20028;-67
2020/12/11 01:07:43;;;;;;;11.80;10.43;;;;;;;;;;5076171;28;20025;-68
2020/12/11 01:10:09;;;;;;;11.95;10.68;;;;;;;;;;5075859;28;20233;-67
2020/12/11 01:12:34;;;;;;;12.10;10.90;;;;;;;;;;5075671;28;20027;-69
2020/12/11 01:14:59;;;;;;;12.55;10.60;;;;;;;;;;5075630;28;20482;-71
2020/12/11 01:17:24;;;;;;;15.20;11.52;;;;;;;;;;5075503;28;20426;-69
2020/12/11 01:19:49;;;;;;;12.70;11.40;;;;;;;;;;5075547;28;20066;-68
2020/12/11 01:22:15;;;;;;;13.07;10.75;;;;;;;;;;5075079;28;20251;-67
2020/12/11 01:24:40;;;;;;;12.73;10.43;;;;;;;;;;5075479;28;20078;-67
2020/12/11 01:27:05;;;;;;;11.80;10.70;;;;;;;;;;5075537;28;20108;-66
2020/12/11 01:29:30;;;;;;;12.18;10.88;;;;;;;;;;5075575;28;20025;-66
2020/12/11 01:31:56;;;;;;;11.98;10.63;;;;;;;;;;5075017;28;20023;-67
2020/12/11 01:34:21;;;;;;;11.55;10.35;;;;;;;;;;5075195;28;20493;-69
2020/12/11 01:36:47;;;;;;;12.48;11.27;;;;;;;;;;5075160;28;20025;-69
2020/12/11 01:39:12;;;;;;;13.07;11.20;;;;;;;;;;5075567;28;20016;-68
2020/12/11 01:41:37;;;;;;;13.88;11.35;;;;;;;;;;5075056;28;20740;-69
2020/12/11 01:44:09;;;;;;;12.60;11.10;;;;;;;;;;5075121;28;20133;-68
2020/12/11 01:46:38;;;;;;;16.48;10.57;;;;;;;;;;5075690;28;20210;-65
2020/12/11 01:49:04;;;;;;;14.13;11.18;;;;;;;;;;5075365;28;20013;-67
2020/12/11 01:51:29;;;;;;;12.80;11.48;;;;;;;;;;5075313;28;20031;-69
2020/12/11 01:53:55;;;;;;;12.47;11.20;;;;;;;;;;5075439;28;20020;-68
2020/12/11 01:56:22;;;;;;;13.55;10.82;;;;;;;;;;5074419;28;20369;-67
2020/12/11 01:58:48;;;;;;;12.50;11.25;;;;;;;;;;5074863;28;20085;-66
2020/12/11 02:01:15;;;;;;;11.75;10.55;;;;;;;;;;5074428;28;20021;-67
2020/12/11 02:03:41;;;;;;;12.38;10.55;;;;;;;;;;5074334;28;20092;-65
2020/12/11 02:06:06;;;;;;;12.20;10.90;;;;;;;;;;5074201;28;20082;-68
2020/12/11 02:08:32;;;;;;;12.52;10.55;;;;;;;;;;5075240;28;20033;-68
2020/12/11 02:10:57;;;;;;;13.80;11.35;;;;;;;;;;5074183;28;20059;-68
2020/12/11 02:13:22;;;;;;;13.23;11.83;;;;;;;;;;5073972;28;20099;-66
2020/12/11 02:15:47;;;;;;;12.60;10.82;;;;;;;;;;5074274;28;20283;-68
2020/12/11 02:18:13;;;;;;;12.10;10.85;;;;;;;;;;5074346;28;20013;-69
2020/12/11 02:20:38;;;;;;;12.73;10.55;;;;;;;;;;5074582;28;20025;-69
2020/12/11 02:23:03;;;;;;;13.32;11.38;;;;;;;;;;5076616;28;20383;-66
2020/12/11 02:25:28;;;;;;;11.90;10.70;;;;;;;;;;5080456;28;20021;-65
2020/12/11 02:27:53;;;;;;;12.40;10.52;;;;;;;;;;5081814;28;20013;-70
2020/12/11 02:30:19;;;;;;;11.73;10.52;;;;;;;;;;5075473;28;20070;-69
2020/12/11 02:32:44;;;;;;;15.38;12.00;;;;;;;;;;5067830;28;20348;-69
2020/12/11 02:35:10;;;;;;;12.00;10.73;;;;;;;;;;5061132;28;20024;-70
2020/12/11 02:37:35;;;;;;;14.02;12.52;;;;;;;;;;5060350;28;20097;-69
2020/12/11 02:40:01;;;;;;;12.55;11.25;;;;;;;;;;5071264;28;20033;-71
2020/12/11 02:42:26;;;;;;;12.85;11.38;;;;;;;;;;5073514;28;20030;-68
2020/12/11 02:44:51;;;;;;;12.87;11.57;;;;;;;;;;5080420;28;20032;-67
2020/12/11 02:47:17;;;;;;;11.68;10.43;;;;;;;;;;5081427;28;20250;-67
2020/12/11 02:49:42;;;;;;;13.40;12.00;;;;;;;;;;5081902;28;20054;-64
2020/12/11 02:52:07;;;;;;;12.77;11.55;;;;;;;;;;5074531;28;20021;-68
2020/12/11 02:54:32;;;;;;;13.68;12.27;;;;;;;;;;5073744;28;20035;-67
2020/12/11 02:56:57;;;;;;;14.63;12.38;;;;;;;;;;5073713;28;20089;-70
2020/12/11 02:59:23;;;;;;;14.13;12.63;;;;;;;;;;5073680;28;20024;-69
2020/12/11 03:01:48;;;;;;;14.15;12.65;;;;;;;;;;5073399;28;20336;-68
2020/12/11 03:04:13;;;;;;;15.20;13.23;;;;;;;;;;5074319;28;20396;-64
2020/12/11 03:06:38;;;;;;;14.98;13.15;;;;;;;;;;5077287;28;20278;-65
2020/12/11 03:09:03;;;;;;;14.80;13.10;;;;;;;;;;5073132;28;20496;-67
2020/12/11 03:11:29;;;;;;;13.95;12.05;;;;;;;;;;5072836;28;20385;-67
2020/12/11 03:13:54;;;;;;;14.43;12.75;;;;;;;;;;5073222;28;20178;-64
2020/12/11 03:16:22;;;;;;;14.90;12.90;;;;;;;;;;5072952;28;20020;-67
2020/12/11 03:18:48;;;;;;;15.57;13.50;;;;;;;;;;5073190;28;20028;-65
2020/12/11 03:21:13;;;;;;;14.68;13.00;;;;;;;;;;5072350;28;20374;-66
2020/12/11 03:23:39;;;;;;;16.23;13.60;;;;;;;;;;5072925;28;20066;-65
2020/12/11 03:26:04;;;;;;;14.63;13.13;;;;;;;;;;5073254;28;20020;-63
2020/12/11 03:28:30;;;;;;;14.90;13.25;;;;;;;;;;5073167;28;20028;-66
2020/12/11 03:30:55;;;;;;;16.13;14.43;;;;;;;;;;5072876;28;20187;-63
2020/12/11 03:33:20;;;;;;;17.42;12.93;;;;;;;;;;5072632;28;20026;-63
2020/12/11 03:35:45;;;;;;;15.10;12.80;;;;;;;;;;5072516;28;20054;-67
2020/12/11 03:38:10;;;;;;;14.85;13.05;;;;;;;;;;5073196;28;20267;-67
2020/12/11 03:40:36;;;;;;;17.17;12.87;;;;;;;;;;5073688;28;20721;-66
2020/12/11 03:43:01;;;;;;;14.83;13.07;;;;;;;;;;5072187;28;20251;-66
2020/12/11 03:45:26;;;;;;;14.18;12.68;;;;;;;;;;5072794;28;20796;-65
2020/12/11 03:47:51;;;;;;;16.97;13.10;;;;;;;;;;5073190;28;20012;-64
2020/12/11 03:50:16;;;;;;;14.02;12.57;;;;;;;;;;5072951;28;20723;-67
2020/12/11 03:52:41;;;;;;;14.40;12.48;;;;;;;;;;5070939;28;20146;-65
2020/12/11 03:55:07;;;;;;;13.37;11.97;;;;;;;;;;5072794;28;20350;-65
2020/12/11 03:57:33;;;;;;;15.13;12.23;;;;;;;;;;5072975;28;20255;-64
2020/12/11 03:59:58;;;;;;;13.55;12.15;;;;;;;;;;5072538;28;20247;-65
2020/12/11 04:02:24;;;;;;;12.97;11.60;;;;;;;;;;5072223;28;20017;-65
2020/12/11 04:04:49;;;;;;;14.30;12.45;;;;;;;;;;5072489;28;20267;-63
2020/12/11 04:07:14;;;;;;;14.63;12.90;;;;;;;;;;5072111;28;20032;-66
2020/12/11 04:09:39;;;;;;;14.60;12.40;;;;;;;;;;5072975;28;20274;-63
2020/12/11 04:12:05;;;;;;;14.55;12.50;;;;;;;;;;5072648;28;20029;-64
2020/12/11 04:14:30;;;;;;;13.68;12.27;;;;;;;;;;5072715;28;20079;-63
2020/12/11 04:16:55;;;;;;;13.93;12.52;;;;;;;;;;5072517;28;20028;-65
2020/12/11 04:19:21;;;;;;;13.80;12.30;;;;;;;;;;5072314;28;20347;-65
2020/12/11 04:21:49;;;;;;;14.48;12.88;;;;;;;;;;5072130;28;20012;-66
2020/12/11 04:24:14;;;;;;;13.35;11.95;;;;;;;;;;5072568;28;20009;-65
2020/12/11 04:26:40;;;;;;;14.77;12.70;;;;;;;;;;5072266;28;20066;-63
2020/12/11 04:29:06;;;;;;;14.43;12.20;;;;;;;;;;5072373;28;20044;-66
2020/12/11 04:31:31;;;;;;;14.57;13.05;;;;;;;;;;5072204;28;20523;-64
2020/12/11 04:33:56;;;;;;;14.67;13.00;;;;;;;;;;5073858;28;20028;-65
2020/12/11 04:36:21;;;;;;;14.32;12.32;;;;;;;;;;5077050;28;20573;-65
2020/12/11 04:38:47;;;;;;;13.57;12.17;;;;;;;;;;5076168;28;20056;-64
2020/12/11 04:41:13;;;;;;;13.77;12.38;;;;;;;;;;5075937;28;20255;-64
2020/12/11 04:43:39;;;;;;;13.25;11.85;;;;;;;;;;5074536;28;20013;-64
2020/12/11 04:46:05;;;;;;;14.50;12.90;;;;;;;;;;5076292;28;20528;-65
2020/12/11 04:48:30;;;;;;;14.93;12.63;;;;;;;;;;5075969;28;20405;-65
2020/12/11 04:50:56;;;;;;;13.88;12.43;;;;;;;;;;5075999;28;20028;-64
2020/12/11 04:53:24;;;;;;;15.50;13.80;;;;;;;;;;5075472;28;20024;-64
2020/12/11 04:55:50;;;;;;;14.57;12.55;;;;;;;;;;5075566;28;20459;-67
2020/12/11 04:58:16;;;;;;;13.52;12.07;;;;;;;;;;5075692;28;20086;-66
2020/12/11 05:00:42;;;;;;;15.88;13.05;;;;;;;;;;5075836;28;20025;-67
2020/12/11 05:03:09;;;;;;;14.60;12.80;;;;;;;;;;5075351;28;20035;-67
2020/12/11 05:05:34;;;;;;;14.50;12.75;;;;;;;;;;5075672;28;20390;-64
2020/12/11 05:07:59;;;;;;;16.13;14.02;;;;;;;;;;5075558;28;20036;-67
2020/12/11 05:10:24;;;;;;;15.20;13.60;;;;;;;;;;5075838;28;20055;-67
2020/12/11 05:12:49;;;;;;;15.68;14.00;;;;;;;;;;5075219;28;20247;-65
2020/12/11 05:15:17;;;;;;;15.50;13.07;;;;;;;;;;5075832;28;20021;-64
2020/12/11 05:17:42;;;;;;;20.92;16.60;;;;;;;;;;5075825;28;20389;-66
2020/12/11 05:20:09;;;;;;;14.13;12.68;;;;;;;;;;5075453;28;20019;-67
2020/12/11 05:22:35;;;;;;;16.20;13.32;;;;;;;;;;5074994;28;20048;-67
2020/12/11 05:25:01;;;;;;;14.77;13.27;;;;;;;;;;5075440;28;20029;-67
2020/12/11 05:27:37;;;;;;;14.50;12.98;;;;;;;;;;5075270;28;20373;-67
2020/12/11 05:30:14;;;;;;;15.38;12.15;;;;;;;;;;5074079;28;20024;-67
2020/12/11 05:32:39;;;;;;;19.20;12.70;;;;;;;;;;5074775;28;20062;-65
2020/12/11 05:35:06;;;;;;;14.93;12.73;;;;;;;;;;5074949;28;20067;-69
2020/12/11 05:37:43;;;;;;;15.50;12.82;;;;;;;;;;5074867;28;20017;-68
2020/12/11 05:40:34;;;;;;;14.40;12.90;;;;;;;;;;5075047;28;20012;-69
2020/12/11 05:43:16;;;;;;;15.60;13.60;;;;;;;;;;5072411;28;20020;-68
2020/12/11 05:45:48;;;;;;;14.50;12.88;;;;;;;;;;5074398;28;20462;-67
2020/12/11 05:48:13;;;;;;;17.25;13.52;;;;;;;;;;5074708;28;20024;-67
2020/12/11 05:50:39;;;;;;;13.63;12.13;;;;;;;;;;5075233;28;20027;-66
2020/12/11 05:53:04;;;;;;;16.02;13.82;;;;;;;;;;5074642;28;20386;-66
2020/12/11 05:55:29;;;;;;;16.42;13.30;;;;;;;;;;5074875;28;20338;-64
2020/12/11 05:57:56;;;;;;;15.73;13.38;;;;;;;;;;5075148;28;20029;-65
2020/12/11 06:00:21;;;;;;;13.38;11.80;;;;;;;;;;5075080;28;20116;-65
2020/12/11 06:02:47;;;;;;;16.05;12.57;;;;;;;;;;5073373;28;20107;-67
2020/12/11 06:05:14;;;;;;;13.55;12.10;;;;;;;;;;5074638;28;20019;-65
2020/12/11 06:07:41;;;;;;;13.88;12.30;;;;;;;;;;5075214;28;20039;-66
2020/12/11 06:10:06;;;;;;;13.40;11.43;;;;;;;;;;5074731;28;20047;-65
2020/12/11 06:12:32;;;;;;;17.17;11.75;;;;;;;;;;5073998;28;20032;-63
2020/12/11 06:14:57;;;;;;;13.65;11.90;;;;;;;;;;5074411;28;20024;-64
2020/12/11 06:17:24;;;;;;;12.75;11.45;;;;;;;;;;5074367;28;20024;-64
2020/12/11 06:19:50;;;;;;;12.55;11.25;;;;;;;;;;5074749;28;20635;-65
2020/12/11 06:22:15;;;;;;;14.00;12.50;;;;;;;;;;5073737;28;20027;-67
2020/12/11 06:24:40;;;;;;;14.73;12.65;;;;;;;;;;5074213;28;20028;-68
2020/12/11 06:27:05;;;;;;;13.75;11.95;;;;;;;;;;5074199;28;20063;-64
2020/12/11 06:29:35;;;;;;;13.25;11.95;;;;;;;;;;5073878;28;20377;-66
2020/12/11 06:32:00;;;;;;;12.52;11.15;;;;;;;;;;5073470;28;20077;-67
2020/12/11 06:34:26;;;;;;;13.60;10.95;;;;;;;;;;5073847;28;20025;-64
2020/12/11 06:36:52;;;;;;;13.63;12.00;;;;;;;;;;5073975;28;20024;-66
2020/12/11 06:39:35;;;;;;;12.10;10.82;;;;;;;;;;5073735;28;20027;-65
2020/12/11 06:42:01;;;;;;;15.23;10.38;;;;;;;;;;5073509;28;20027;-67
2020/12/11 06:44:30;;;;;;;13.93;10.50;;;;;;;;;;5073637;28;20012;-65
2020/12/11 06:47:05;;;;;;;13.35;11.02;;;;;;;;;;5073759;28;20043;-65
2020/12/11 06:49:30;;;;;;;13.52;11.55;;;;;;;;;;5073440;28;20012;-67
2020/12/11 06:51:56;;;;;;;15.20;11.20;;;;;;;;;;5073338;28;20426;-68
2020/12/11 06:54:21;;;;;;;12.52;11.32;;;;;;;;;;5073153;28;20279;-65
2020/12/11 06:56:53;;;;;;;13.55;10.90;;;;;;;;;;5073065;28;20024;-70
2020/12/11 06:59:27;;;;;;;14.38;11.15;;;;;;;;;;5073794;28;20033;-67
2020/12/11 07:01:53;;;;;;;14.35;12.13;;;;;;;;;;5073436;28;20012;-70
2020/12/11 07:04:18;;;;;;;16.27;11.57;;;;;;;;;;5073564;28;20016;-70
2020/12/11 07:06:47;;;;;;;14.50;12.05;;;;;;;;;;5073302;28;20028;-70
2020/12/11 07:09:13;;;;;;;14.95;12.63;;;;;;;;;;5073621;28;20046;-70
2020/12/11 07:11:38;;;;;;;15.38;12.40;;;;;;;;;;5072751;28;20024;-70
2020/12/11 07:14:03;;;;;;;12.77;11.50;;;;;;;;;;5072529;28;20099;-71
2020/12/11 07:16:28;;;;;;;13.82;11.68;;;;;;;;;;5071868;28;20385;-72
2020/12/11 07:18:54;;;;;;;11.90;10.77;;;;;;;;;;5072930;28;20020;-69
2020/12/11 07:21:26;;;;;;;12.82;11.13;;;;;;;;;;5072889;28;20017;-70
2020/12/11 07:23:51;;;;;;;13.48;11.48;;;;;;;;;;5072710;28;20024;-71
2020/12/11 07:26:16;;;;;;;13.65;12.25;;;;;;;;;;5071273;28;20497;-72
2020/12/11 07:28:41;;;;;;;12.40;11.10;;;;;;;;;;5072666;28;20020;-70
2020/12/11 07:31:10;;;;;;;12.55;11.13;;;;;;;;;;5072597;28;20265;-71
2020/12/11 07:33:35;;;;;;;12.70;11.50;;;;;;;;;;5072742;28;20020;-71
2020/12/11 07:36:01;;;;;;;13.17;11.77;;;;;;;;;;5072999;28;20520;-70
2020/12/11 07:38:27;;;;;;;12.10;10.70;;;;;;;;;;5073073;28;20253;-72
2020/12/11 07:40:56;;;;;;;12.60;11.30;;;;;;;;;;5072577;28;20412;-71
2020/12/11 07:43:21;;;;;;;12.98;10.98;;;;;;;;;;5072331;28;20025;-72
2020/12/11 07:45:47;;;;;;;13.32;11.93;;;;;;;;;;5072409;28;20044;-70
2020/12/11 07:48:12;;;;;;;14.30;11.38;;;;;;;;;;5072469;28;20580;-73
2020/12/11 07:50:38;;;;;;;13.30;11.38;;;;;;;;;;5072300;28;20081;-71
2020/12/11 07:53:06;;;;;;;13.23;11.68;;;;;;;;;;5071963;28;20514;-72
2020/12/11 07:55:32;;;;;;;12.57;10.98;;;;;;;;;;5072101;28;20365;-72
2020/12/11 07:57:58;;;;;;;13.20;10.82;;;;;;;;;;5072253;28;20024;-72
2020/12/11 08:00:23;;;;;;;12.77;10.07;;;;;;;;;;5072243;28;20031;-71
2020/12/11 08:02:56;;;;;;;11.55;10.45;;;;;;;;;;5071835;28;20054;-71
2020/12/11 08:05:22;;;;;;;11.80;10.57;;;;;;;;;;5071891;28;20055;-69
2020/12/11 08:07:52;;;;;;;11.65;10.45;;;;;;;;;;5071974;28;20028;-68
2020/12/11 08:10:18;;;;;;;13.15;10.18;;;;;;;;;;5076441;28;20104;-69
2020/12/11 08:12:44;;;;;;;11.50;10.23;;;;;;;;;;5076214;28;20021;-68
2020/12/11 08:15:09;;;;;;;12.25;10.82;;;;;;;;;;5075713;28;20107;-66
2020/12/11 08:17:35;;;;;;;11.68;10.48;;;;;;;;;;5076070;28;20020;-69
2020/12/11 08:20:02;;;;;;;12.60;10.50;;;;;;;;;;5076434;28;20028;-67
2020/12/11 08:22:34;;;;;;;12.73;10.50;;;;;;;;;;5076178;28;20055;-68
2020/12/11 08:25:00;;;;;;;11.00;9.85;;;;;;;;;;5076396;28;20038;-67
2020/12/11 08:27:27;;;;;;;11.98;10.68;;;;;;;;;;5075937;28;20012;-68
2020/12/11 08:30:08;;;;;;;13.20;10.15;;;;;;;;;;5075007;28;20021;-67
2020/12/11 08:32:33;;;;;;;10.20;9.20;;;;;;;;;;5075987;28;20027;-68
2020/12/11 08:34:58;;;;;;;11.30;10.00;;;;;;;;;;5076127;28;20016;-67
2020/12/11 08:37:24;;;;;;;11.32;10.15;;;;;;;;;;5071108;28;20478;-66
2020/12/11 08:39:49;;;;;;;10.38;9.38;;;;;;;;;;5075302;28;20013;-66
2020/12/11 08:42:22;;;;;;;11.10;10.00;;;;;;;;;;5073383;28;20424;-67
2020/12/11 08:50:18;;;;;;;10.43;9.35;;;;;;;;;;5075693;28;20028;-69
2020/12/11 08:52:44;;;;;;;9.68;8.77;;;;;;;;;;5075065;28;20016;-68
2020/12/11 08:55:09;;;;;;;9.73;8.73;;;;;;;;;;5075242;28;20031;-66
2020/12/11 08:57:34;;;;;;;16.93;9.70;;;;;;;;;;5074931;28;20115;-69
2020/12/11 09:00:00;;;;;;;10.70;8.75;;;;;;;;;;5075202;28;20342;-66
2020/12/11 09:02:26;;;;;;;11.88;8.68;;;;;;;;;;5075073;28;20028;-68
2020/12/11 09:04:51;;;;;;;10.65;8.57;;;;;;;;;;5075433;28;20016;-67
2020/12/11 09:07:16;;;;;;;9.75;8.75;;;;;;;;;;5074494;28;20078;-67
2020/12/11 09:09:41;;;;;;;11.95;8.88;;;;;;;;;;5075064;28;20355;-67
2020/12/11 09:12:06;;;;;;;13.25;8.55;;;;;;;;;;5074728;28;20016;-68
2020/12/11 09:14:33;;;;;;;9.80;8.80;;;;;;;;;;5075786;28;20031;-67
2020/12/11 09:16:58;;;;;;;10.73;9.00;;;;;;;;;;5082583;28;20059;-69
2020/12/11 09:19:24;;;;;;;11.65;8.93;;;;;;;;;;5089666;28;20381;-69
2020/12/11 09:21:49;;;;;;;9.75;8.75;;;;;;;;;;5079447;28;20016;-70
2020/12/11 09:24:14;;;;;;;9.83;8.83;;;;;;;;;;5089210;28;20366;-71
2020/12/11 09:26:40;;;;;;;9.90;8.80;;;;;;;;;;5082513;28;20288;-70
2020/12/11 09:29:12;;;;;;;9.55;8.63;;;;;;;;;;5074229;28;20021;-69
2020/12/11 09:31:39;;;;;;;9.77;8.82;;;;;;;;;;5053970;28;20084;-69
2020/12/11 09:34:04;;;;;;;12.25;9.00;;;;;;;;;;5054780;28;20100;-71
2020/12/11 09:36:29;;;;;;;11.57;8.80;;;;;;;;;;5059313;28;20518;-70
2020/12/11 09:38:54;;;;;;;9.50;8.50;;;;;;;;;;5074363;28;20021;-68
2020/12/11 09:41:26;;;;;;;9.77;8.77;;;;;;;;;;5073583;28;20714;-68
2020/12/11 09:49:12;;;;;;;9.85;8.85;;;;;;;;;;5072111;28;20031;-69
2020/12/11 09:51:52;;;;;;;10.70;8.10;;;;;;;;;;5071005;28;20440;-68
2020/12/11 09:56:45;;;;;;;9.18;8.07;;;;;;;;;;5072399;28;20029;-69
2020/12/11 09:59:17;;;;;;;9.55;8.40;;;;;;;;;;5072205;28;20021;-70
2020/12/11 10:04:16;;;;;;;9.82;8.90;;;;;;;;;;5073315;28;20504;-68
2020/12/11 10:06:41;;;;;;;9.65;8.27;;;;;;;;;;5073893;28;20033;-69
2020/12/11 10:09:07;;;;;;;10.00;7.93;;;;;;;;;;5074412;28;20465;-68
2020/12/11 10:11:33;;;;;;;9.45;8.38;;;;;;;;;;5074118;28;20477;-68
2020/12/11 10:16:43;;;;;;;9.48;8.05;;;;;;;;;;5074036;28;20500;-70
2020/12/11 10:19:08;;;;;;;9.35;8.40;;;;;;;;;;5074105;28;20036;-67
2020/12/11 10:21:33;;;;;;;9.70;8.25;;;;;;;;;;5073815;28;20048;-67
2020/12/11 10:23:58;;;;;;;9.27;8.35;;;;;;;;;;5074026;28;20065;-66
2020/12/11 10:26:24;;;;;;;8.60;7.80;;;;;;;;;;5073855;28;20158;-68
2020/12/11 10:28:49;;;;;;;9.70;7.95;;;;;;;;;;5073983;28;20032;-67
2020/12/11 10:31:15;;;;;;;10.60;8.23;;;;;;;;;;5073526;28;20024;-66
2020/12/11 10:33:40;;;;;;;9.15;8.25;;;;;;;;;;5072254;28;20102;-68
2020/12/11 10:36:05;;;;;;;8.20;7.13;;;;;;;;;;5073256;28;20425;-66
2020/12/11 10:38:30;;;;;;;8.35;7.55;;;;;;;;;;5073100;28;20263;-65
2020/12/11 10:40:55;;;;;;;8.87;7.70;;;;;;;;;;5073474;28;20088;-71
2020/12/11 10:43:20;;;;;;;8.68;7.78;;;;;;;;;;5073120;28;20320;-71
2020/12/11 10:45:46;;;;;;;8.33;7.53;;;;;;;;;;5072664;28;20032;-67
2020/12/11 10:48:11;;;;;;;9.00;7.30;;;;;;;;;;5070888;28;20255;-67
2020/12/11 10:50:36;;;;;;;8.27;7.23;;;;;;;;;;5070871;28;20263;-66
2020/12/11 10:53:01;;;;;;;9.00;7.50;;;;;;;;;;5071006;28;20345;-64
2020/12/11 10:55:26;;;;;;;9.90;7.80;;;;;;;;;;5070984;28;20282;-65
2020/12/11 10:57:52;;;;;;;9.32;7.57;;;;;;;;;;5071386;28;20028;-67
2020/12/11 11:00:17;;;;;;;8.75;7.78;;;;;;;;;;5071327;28;20052;-67
2020/12/11 11:02:44;;;;;;;10.15;8.27;;;;;;;;;;5072740;28;20091;-67
2020/12/11 11:05:09;;;;;;;8.10;7.25;;;;;;;;;;5073197;28;20025;-68
2020/12/11 11:07:34;;;;;;;8.77;7.97;;;;;;;;;;5073046;28;20116;-65
2020/12/11 11:12:43;;;;;;;9.60;7.63;;;;;;;;;;5066404;28;20775;-71
2020/12/11 11:15:27;;;;;;;8.48;7.65;;;;;;;;;;5059484;28;20036;-70
2020/12/11 11:18:15;;;;;;;9.85;7.75;;;;;;;;;;5068293;28;20017;-69
2020/12/11 11:23:14;;;;;;;8.18;7.47;;;;;;;;;;5070810;28;20032;-70
2020/12/11 11:28:23;;;;;;;8.50;7.35;;;;;;;;;;5080594;28;20090;-71
2020/12/11 11:30:49;;;;;;;9.10;8.25;;;;;;;;;;5080442;28;20462;-71
2020/12/11 11:33:14;;;;;;;7.97;7.20;;;;;;;;;;5086393;28;20030;-71
2020/12/11 11:35:39;;;;;;;8.43;7.47;;;;;;;;;;5089157;28;20111;-71
2020/12/11 11:38:08;;;;;;;13.38;7.93;;;;;;;;;;5071052;28;20616;-72
2020/12/11 11:40:38;;;;;;;10.52;7.38;;;;;;;;;;5090528;28;20103;-73
2020/12/11 11:43:03;;;;;;;8.23;7.43;;;;;;;;;;5091428;28;20047;-72
2020/12/11 11:45:33;;;;;;;9.53;7.50;;;;;;;;;;5090949;28;20048;-71
2020/12/11 11:47:58;;;;;;;7.57;6.88;;;;;;;;;;5057036;28;20259;-72
2020/12/11 11:53:21;;;;;;;7.20;6.50;;;;;;;;;;5052870;28;20138;-69
2020/12/11 11:55:47;;;;;;;7.45;6.68;;;;;;;;;;5052772;28;20028;-72
2020/12/11 11:58:12;;;;;;;6.80;6.20;;;;;;;;;;5053076;28;20360;-70
2020/12/11 12:00:37;;;;;;;7.07;6.10;;;;;;;;;;5063076;28;20148;-69
2020/12/11 12:03:03;;;;;;;7.00;5.95;;;;;;;;;;5074617;28;20247;-69
2020/12/11 12:05:28;;;;;;;6.15;5.57;;;;;;;;;;5067763;28;20513;-69
2020/12/11 12:07:53;;;;;;;8.10;6.33;;;;;;;;;;5083798;28;20051;-69
2020/12/11 12:10:18;;;;;;;7.13;6.13;;;;;;;;;;5075435;28;20266;-68
2020/12/11 12:12:44;;;;;;;6.70;5.87;;;;;;;;;;5077572;28;20422;-69
2020/12/11 12:15:12;;;;;;;9.23;6.33;;;;;;;;;;5083971;28;20279;-69
2020/12/11 12:17:52;;;;;;;6.22;5.63;;;;;;;;;;5069510;28;20254;-71
2020/12/11 12:20:36;;;;;;;6.72;5.90;;;;;;;;;;5077163;28;20026;-68
2020/12/11 12:30:51;;;;;;;6.40;5.80;;;;;;;;;;5087112;28;20019;-71
2020/12/11 12:43:50;;;;;;;6.38;5.78;;;;;;;;;;5091848;28;20031;-70
2020/12/11 12:46:15;;;;;;;6.68;6.00;;;;;;;;;;5074984;28;20017;-71
2020/12/11 12:48:40;;;;;;;7.18;6.30;;;;;;;;;;5087904;28;20346;-70
2020/12/11 12:51:07;;;;;;;6.80;6.13;;;;;;;;;;5077025;28;20020;-70
2020/12/11 12:53:33;;;;;;;7.57;6.47;;;;;;;;;;5085729;28;20833;-69
2020/12/11 12:58:44;;;;;;;6.40;5.68;;;;;;;;;;5055805;28;20404;-69
2020/12/11 13:01:20;;;;;;;7.18;6.28;;;;;;;;;;5055689;28;20035;-69
2020/12/11 13:06:30;;;;;;;7.72;6.13;;;;;;;;;;5086553;28;20082;-70
2020/12/11 13:08:55;;;;;;;7.38;6.60;;;;;;;;;;5087156;28;20028;-70
2020/12/11 13:11:23;;;;;;;6.63;6.00;;;;;;;;;;5095230;28;20024;-70
2020/12/11 13:13:48;;;;;;;8.15;6.55;;;;;;;;;;5078490;28;20031;-71
2020/12/11 13:16:14;;;;;;;7.57;6.87;;;;;;;;;;5090906;28;20032;-70
2020/12/11 13:18:39;;;;;;;8.75;6.65;;;;;;;;;;5085156;28;20279;-70
2020/12/11 13:21:07;;;;;;;8.77;6.83;;;;;;;;;;5086679;28;20023;-69
2020/12/11 13:26:24;;;;;;;7.97;7.18;;;;;;;;;;5088513;28;20027;-70
2020/12/11 13:28:49;;;;;;;7.10;6.40;;;;;;;;;;5074792;28;20056;-70
2020/12/11 13:31:17;;;;;;;9.83;7.23;;;;;;;;;;5089461;28;20051;-70
2020/12/11 13:33:43;;;;;;;7.35;6.65;;;;;;;;;;5078169;28;20279;-70
2020/12/11 13:36:08;;;;;;;8.65;6.80;;;;;;;;;;5088941;28;20432;-70
2020/12/11 13:38:33;;;;;;;7.97;6.90;;;;;;;;;;5083444;28;20428;-70
2020/12/11 13:40:58;;;;;;;7.85;6.82;;;;;;;;;;5084591;28;20025;-69
2020/12/11 13:43:23;;;;;;;8.07;7.18;;;;;;;;;;5094255;28;20100;-69
2020/12/11 13:45:49;;;;;;;7.43;6.45;;;;;;;;;;5078891;28;20028;-70
2020/12/11 13:48:14;;;;;;;8.10;7.18;;;;;;;;;;5081483;28;20322;-70
2020/12/11 13:50:39;;;;;;;8.03;6.60;;;;;;;;;;5084543;28;20021;-68
2020/12/11 13:53:04;;;;;;;6.97;6.25;;;;;;;;;;5080842;28;20251;-67
2020/12/11 13:55:30;;;;;;;8.30;7.07;;;;;;;;;;5074318;28;20028;-68
2020/12/11 13:57:55;;;;;;;7.55;6.75;;;;;;;;;;5090619;28;20012;-67
2020/12/11 14:00:20;;;;;;;8.48;7.15;;;;;;;;;;5081541;28;20032;-67
2020/12/11 14:02:45;;;;;;;7.78;6.72;;;;;;;;;;5086419;28;20350;-68
2020/12/11 14:05:11;;;;;;;7.30;6.63;;;;;;;;;;5091671;28;20020;-67
2020/12/11 14:07:36;;;;;;;7.65;6.65;;;;;;;;;;5080138;28;20033;-65
2020/12/11 14:10:02;;;;;;;7.85;7.05;;;;;;;;;;5078735;28;20023;-67
2020/12/11 14:12:27;;;;;;;8.35;7.45;;;;;;;;;;5085826;28;20478;-67
2020/12/11 14:14:52;;;;;;;8.95;7.30;;;;;;;;;;5085699;28;20069;-70
2020/12/11 14:17:24;;;;;;;9.95;7.20;;;;;;;;;;5078631;28;20048;-70
2020/12/11 14:22:52;;;;;;;8.30;7.50;;;;;;;;;;5061569;28;20374;-72
2020/12/11 14:25:17;;;;;;;9.52;7.13;;;;;;;;;;5074409;28;20116;-70
2020/12/11 14:27:43;;;;;;;8.30;7.40;;;;;;;;;;5074612;28;20020;-69
2020/12/11 14:30:08;;;;;;;8.43;7.63;;;;;;;;;;5069169;28;20078;-69
2020/12/11 14:32:33;;;;;;;9.13;7.80;;;;;;;;;;5079614;28;20012;-70
2020/12/11 14:34:59;;;;;;;12.20;8.68;;;;;;;;;;5084286;28;20024;-70
2020/12/11 14:37:24;;;;;;;9.02;8.13;;;;;;;;;;5086348;28;20073;-67
2020/12/11 14:39:49;;;;;;;10.23;7.93;;;;;;;;;;5081011;28;20221;-66
2020/12/11 14:42:14;;;;;;;10.60;8.67;;;;;;;;;;5096190;28;20009;-66
2020/12/11 14:44:39;;;;;;;9.60;7.77;;;;;;;;;;5087249;28;20242;-67
2020/12/11 14:47:04;;;;;;;9.87;8.57;;;;;;;;;;5085220;28;20261;-68
2020/12/11 14:49:30;;;;;;;9.95;8.63;;;;;;;;;;5087470;28;20254;-68
2020/12/11 14:51:55;;;;;;;12.25;9.73;;;;;;;;;;5093505;28;20020;-70
2020/12/11 14:54:20;;;;;;;13.50;10.10;;;;;;;;;;5089302;28;20012;-68
2020/12/11 14:56:47;;;;;;;10.83;9.37;;;;;;;;;;5080526;28;20020;-66
2020/12/11 14:59:13;;;;;;;10.65;9.55;;;;;;;;;;5081357;28;20250;-67
2020/12/11 15:01:38;;;;;;;13.35;9.82;;;;;;;;;;5074003;28;20032;-68
2020/12/11 15:04:03;;;;;;;11.85;10.25;;;;;;;;;;5093374;28;20018;-68
2020/12/11 15:06:29;;;;;;;11.23;10.10;;;;;;;;;;5083890;28;20077;-66
2020/12/11 15:08:54;;;;;;;12.63;10.88;;;;;;;;;;5085682;28;20749;-67
2020/12/11 15:11:20;;;;;;;14.05;11.50;;;;;;;;;;5072171;28;20024;-70
2020/12/11 15:13:45;;;;;;;12.57;11.27;;;;;;;;;;5089033;28;20119;-69
2020/12/11 15:16:10;;;;;;;12.30;11.10;;;;;;;;;;5076060;28;20023;-69
2020/12/11 15:18:36;;;;;;;13.50;10.80;;;;;;;;;;5085805;28;20093;-68
2020/12/11 15:21:02;;;;;;;12.02;10.75;;;;;;;;;;5072723;28;20594;-72